Time;durP1;ratioP1;P1;durP2;ratioP2;P2;SDS_P1;SDS_P2;PMS_P1;PMS_P2;Temp;Humidity;BMP_temperature;BMP_pressure;BME280_temperature;BME280_humidity;BME280_pressure;Samples;Min_cycle;Max_cycle;Signal;HPM_P1;HPM_P2
2022/02/16 00:02:18;;;;;;;12.13;4.20;;;;;;;;;;10518410;28;20481;-61
2022/02/16 00:07:18;;;;;;;5.95;3.35;;;;;;;;;;10522931;28;20461;-60
2022/02/16 00:12:19;;;;;;;10.63;3.97;;;;;;;;;;10528908;28;20476;-60
2022/02/16 00:17:19;;;;;;;4.93;3.50;;;;;;;;;;10507944;28;20426;-61
2022/02/16 00:22:25;;;;;;;7.87;3.63;;;;;;;;;;10508771;28;20557;-63
2022/02/16 00:27:25;;;;;;;4.80;3.03;;;;;;;;;;10494024;28;20029;-61
2022/02/16 00:32:26;;;;;;;6.93;3.63;;;;;;;;;;10495732;28;20399;-61
2022/02/16 00:37:26;;;;;;;5.80;3.43;;;;;;;;;;10498684;28;20048;-61
2022/02/16 00:42:27;;;;;;;8.70;3.60;;;;;;;;;;10505725;28;20066;-61
2022/02/16 00:47:27;;;;;;;7.80;3.73;;;;;;;;;;10508877;28;20468;-61
2022/02/16 00:52:27;;;;;;;4.97;3.10;;;;;;;;;;10503193;28;21105;-62
2022/02/16 00:57:28;;;;;;;6.47;3.10;;;;;;;;;;10500573;28;20493;-61
2022/02/16 01:02:28;;;;;;;5.00;3.23;;;;;;;;;;10509865;28;20466;-61
2022/02/16 01:07:28;;;;;;;9.27;3.33;;;;;;;;;;10502441;28;20469;-63
2022/02/16 01:12:29;;;;;;;5.83;3.17;;;;;;;;;;10510757;28;20535;-61
2022/02/16 01:17:29;;;;;;;5.07;3.17;;;;;;;;;;10528036;28;20039;-61
2022/02/16 01:22:29;;;;;;;11.13;3.23;;;;;;;;;;10509410;28;20902;-61
2022/02/16 01:27:30;;;;;;;6.73;3.33;;;;;;;;;;10525527;28;20115;-62
2022/02/16 01:32:30;;;;;;;6.10;3.07;;;;;;;;;;10507285;28;20055;-62
2022/02/16 01:37:31;;;;;;;3.28;2.80;;;;;;;;;;10515266;28;20052;-62
2022/02/16 01:42:31;;;;;;;4.70;2.83;;;;;;;;;;10505264;28;20081;-61
2022/02/16 01:47:32;;;;;;;3.95;3.00;;;;;;;;;;10500223;28;20155;-61
2022/02/16 01:52:32;;;;;;;4.70;4.03;;;;;;;;;;10512321;28;20585;-62
2022/02/16 01:57:34;;;;;;;5.50;2.75;;;;;;;;;;10497855;28;20465;-62
2022/02/16 02:02:34;;;;;;;7.75;3.05;;;;;;;;;;10532714;28;20032;-61
2022/02/16 02:07:36;;;;;;;3.47;2.70;;;;;;;;;;10525415;28;20031;-61
2022/02/16 02:13:02;;;;;;;4.40;2.65;;;;;;;;;;10514779;28;20039;-61
2022/02/16 02:18:03;;;;;;;4.00;2.97;;;;;;;;;;10521085;28;20040;-62
2022/02/16 02:23:03;;;;;;;5.32;2.83;;;;;;;;;;10532200;28;20036;-62
2022/02/16 02:28:03;;;;;;;6.43;3.03;;;;;;;;;;10538546;28;20028;-61
2022/02/16 02:33:04;;;;;;;7.73;2.80;;;;;;;;;;10538339;28;20433;-62
2022/02/16 02:38:05;;;;;;;5.27;2.50;;;;;;;;;;10537939;28;20548;-63
2022/02/16 02:43:07;;;;;;;5.20;2.67;;;;;;;;;;10533765;28;20483;-61
2022/02/16 02:48:07;;;;;;;6.53;2.90;;;;;;;;;;10538164;28;20020;-62
2022/02/16 02:53:07;;;;;;;2.90;2.60;;;;;;;;;;10537707;28;20467;-62
2022/02/16 02:58:08;;;;;;;3.43;2.70;;;;;;;;;;10536340;28;20507;-62
2022/02/16 03:03:08;;;;;;;3.85;2.75;;;;;;;;;;10537279;28;20024;-62
2022/02/16 03:08:09;;;;;;;4.63;2.60;;;;;;;;;;10537004;28;20028;-61
2022/02/16 03:13:19;;;;;;;3.45;2.50;;;;;;;;;;10537009;28;21016;-62
2022/02/16 03:18:22;;;;;;;2.90;2.22;;;;;;;;;;10536506;28;20035;-62
2022/02/16 03:23:23;;;;;;;3.58;2.42;;;;;;;;;;10536562;28;20020;-62
2022/02/16 03:28:23;;;;;;;4.00;2.45;;;;;;;;;;10536307;28;20029;-61
2022/02/16 03:33:24;;;;;;;2.60;2.40;;;;;;;;;;10535612;28;20085;-61
2022/02/16 03:38:24;;;;;;;3.22;2.47;;;;;;;;;;10535541;28;20888;-62
2022/02/16 03:43:24;;;;;;;3.53;2.40;;;;;;;;;;10535809;28;20103;-61
2022/02/16 03:48:25;;;;;;;3.33;2.40;;;;;;;;;;10534290;28;20020;-62
2022/02/16 03:53:25;;;;;;;3.38;2.10;;;;;;;;;;10535432;28;20103;-64
2022/02/16 03:58:25;;;;;;;3.03;2.17;;;;;;;;;;10532472;28;20058;-62
2022/02/16 04:03:26;;;;;;;3.37;2.30;;;;;;;;;;10534784;28;20514;-61
2022/02/16 04:08:26;;;;;;;2.97;2.20;;;;;;;;;;10534694;28;20020;-62
2022/02/16 04:13:27;;;;;;;2.63;2.30;;;;;;;;;;10534528;28;20449;-62
2022/02/16 04:18:27;;;;;;;2.90;2.30;;;;;;;;;;10534868;28;20036;-63
2022/02/16 04:23:27;;;;;;;3.30;2.10;;;;;;;;;;10534492;28;20493;-63
2022/02/16 04:28:28;;;;;;;2.50;2.30;;;;;;;;;;10533809;28;20090;-63
2022/02/16 04:33:28;;;;;;;3.00;2.33;;;;;;;;;;10534041;28;20444;-61
2022/02/16 04:38:29;;;;;;;2.40;2.20;;;;;;;;;;10533540;28;20043;-61
2022/02/16 04:43:30;;;;;;;6.57;2.45;;;;;;;;;;10534450;28;20496;-61
2022/02/16 04:48:30;;;;;;;2.30;2.10;;;;;;;;;;10533764;28;20074;-60
2022/02/16 04:53:34;;;;;;;3.17;2.00;;;;;;;;;;10533706;28;20086;-61
2022/02/16 04:58:35;;;;;;;2.85;2.47;;;;;;;;;;10529944;28;20086;-61
2022/02/16 05:03:35;;;;;;;2.97;2.05;;;;;;;;;;10533289;28;20483;-62
2022/02/16 05:08:35;;;;;;;5.67;2.50;;;;;;;;;;10533200;28;20024;-61
2022/02/16 05:13:36;;;;;;;2.87;2.03;;;;;;;;;;10533290;28;20512;-61
2022/02/16 05:18:36;;;;;;;2.38;2.00;;;;;;;;;;10533555;28;20025;-60
2022/02/16 05:23:37;;;;;;;2.47;2.27;;;;;;;;;;10533148;28;20024;-60
2022/02/16 05:28:37;;;;;;;2.63;1.90;;;;;;;;;;10548461;28;20453;-60
2022/02/16 05:33:37;;;;;;;2.13;1.93;;;;;;;;;;10533141;28;20034;-63
2022/02/16 05:38:38;;;;;;;3.30;2.13;;;;;;;;;;10535046;28;20048;-62
2022/02/16 05:43:38;;;;;;;2.60;2.20;;;;;;;;;;10540672;28;20106;-62
2022/02/16 05:48:39;;;;;;;1.93;1.70;;;;;;;;;;10540445;28;20110;-60
2022/02/16 05:53:39;;;;;;;2.63;1.83;;;;;;;;;;10539130;28;20454;-60
2022/02/16 05:58:40;;;;;;;2.55;1.90;;;;;;;;;;10534415;28;20559;-61
2022/02/16 06:03:43;;;;;;;2.10;1.80;;;;;;;;;;10538297;28;20093;-62
2022/02/16 06:08:47;;;;;;;2.55;2.00;;;;;;;;;;10539366;28;20383;-61
2022/02/16 06:13:47;;;;;;;2.40;2.10;;;;;;;;;;10538205;28;20386;-61
2022/02/16 06:18:48;;;;;;;1.92;1.73;;;;;;;;;;10539488;28;20028;-60
2022/02/16 06:23:48;;;;;;;4.27;1.83;;;;;;;;;;10539182;28;20425;-62
2022/02/16 06:28:49;;;;;;;2.67;1.90;;;;;;;;;;10538688;28;20429;-61
2022/02/16 06:33:49;;;;;;;2.10;1.90;;;;;;;;;;10538188;28;20046;-61
2022/02/16 06:38:50;;;;;;;5.17;1.97;;;;;;;;;;10538010;28;20131;-60
2022/02/16 06:43:51;;;;;;;3.15;1.80;;;;;;;;;;10538609;28;20441;-61
2022/02/16 06:48:51;;;;;;;1.60;1.50;;;;;;;;;;10537512;28;20035;-62
2022/02/16 06:53:55;;;;;;;1.80;1.70;;;;;;;;;;10538645;28;20532;-61
2022/02/16 06:58:56;;;;;;;4.55;2.20;;;;;;;;;;10533906;28;20457;-62
2022/02/16 07:03:56;;;;;;;2.28;1.77;;;;;;;;;;10537609;28;20024;-61
2022/02/16 07:08:57;;;;;;;3.93;2.00;;;;;;;;;;10534169;28;20570;-63
2022/02/16 07:13:58;;;;;;;5.63;2.13;;;;;;;;;;10536179;28;20502;-63
2022/02/16 07:18:58;;;;;;;6.50;2.40;;;;;;;;;;10535855;28;20120;-63
2022/02/16 07:23:59;;;;;;;7.20;2.80;;;;;;;;;;10536224;28;20062;-63
2022/02/16 07:28:59;;;;;;;7.23;3.07;;;;;;;;;;10535703;28;20028;-64
2022/02/16 07:33:59;;;;;;;10.63;2.90;;;;;;;;;;10534353;28;20437;-63
2022/02/16 07:39:01;;;;;;;8.63;2.72;;;;;;;;;;10533585;28;20488;-63
2022/02/16 07:44:02;;;;;;;10.80;3.15;;;;;;;;;;10533931;28;20399;-63
2022/02/16 07:49:03;;;;;;;10.20;3.00;;;;;;;;;;10532530;28;20027;-63
2022/02/16 07:54:04;;;;;;;17.08;3.40;;;;;;;;;;10532146;28;20046;-64
2022/02/16 07:59:05;;;;;;;8.68;2.83;;;;;;;;;;10534297;28;20042;-66
2022/02/16 08:04:17;;;;;;;13.77;2.70;;;;;;;;;;10532966;28;20020;-64
2022/02/16 08:09:18;;;;;;;10.38;3.65;;;;;;;;;;10528553;28;20772;-63
2022/02/16 08:14:20;;;;;;;8.13;3.40;;;;;;;;;;10530746;28;20030;-64
2022/02/16 08:19:20;;;;;;;8.95;3.80;;;;;;;;;;10534006;28;20502;-64
2022/02/16 08:24:20;;;;;;;7.37;3.40;;;;;;;;;;10533831;28;20028;-65
2022/02/16 08:29:24;;;;;;;5.87;2.93;;;;;;;;;;10533500;28;20024;-68
2022/02/16 08:34:24;;;;;;;4.32;2.80;;;;;;;;;;10533487;28;20437;-63
2022/02/16 08:39:25;;;;;;;4.60;3.10;;;;;;;;;;10533232;28;20555;-65
2022/02/16 08:44:26;;;;;;;5.72;2.90;;;;;;;;;;10532550;28;20481;-65
2022/02/16 08:49:26;;;;;;;7.72;3.05;;;;;;;;;;10532353;28;20039;-63
2022/02/16 08:54:27;;;;;;;4.03;2.83;;;;;;;;;;10533642;28;20032;-63
2022/02/16 08:59:27;;;;;;;5.27;3.20;;;;;;;;;;10533366;28;20106;-63
2022/02/16 09:04:27;;;;;;;4.20;3.23;;;;;;;;;;10532554;28;20448;-63
2022/02/16 09:09:28;;;;;;;5.97;2.95;;;;;;;;;;10532580;28;20805;-61
2022/02/16 09:14:28;;;;;;;11.90;6.53;;;;;;;;;;10532703;28;20424;-64
2022/02/16 09:19:29;;;;;;;10.38;4.70;;;;;;;;;;10540457;28;20052;-63
2022/02/16 09:24:30;;;;;;;8.30;4.20;;;;;;;;;;10536915;28;20032;-64
2022/02/16 09:29:30;;;;;;;6.75;4.47;;;;;;;;;;10537834;28;20028;-64
2022/02/16 09:34:31;;;;;;;6.82;4.20;;;;;;;;;;10540163;28;20028;-64
2022/02/16 09:39:32;;;;;;;9.85;4.05;;;;;;;;;;10540394;28;20050;-64
2022/02/16 09:44:56;;;;;;;6.80;3.97;;;;;;;;;;10540705;28;20024;-64
2022/02/16 09:49:56;;;;;;;7.38;4.00;;;;;;;;;;10541306;28;20020;-64
2022/02/16 09:54:57;;;;;;;5.35;3.67;;;;;;;;;;10540386;28;20020;-64
2022/02/16 09:59:57;;;;;;;4.60;3.60;;;;;;;;;;10539088;28;20387;-64
2022/02/16 10:04:58;;;;;;;5.55;3.58;;;;;;;;;;10537966;28;20432;-64
2022/02/16 10:10:21;;;;;;;5.25;3.30;;;;;;;;;;10539813;28;20107;-63
2022/02/16 10:15:23;;;;;;;12.18;3.95;;;;;;;;;;10536517;28;20036;-63
2022/02/16 10:20:24;;;;;;;11.15;3.78;;;;;;;;;;10534077;28;20112;-63
2022/02/16 10:25:28;;;;;;;17.43;3.80;;;;;;;;;;10536068;28;20510;-63
2022/02/16 10:30:28;;;;;;;7.22;3.33;;;;;;;;;;10536726;28;20441;-63
2022/02/16 10:35:39;;;;;;;12.65;3.63;;;;;;;;;;10536711;28;20034;-63
2022/02/16 10:40:40;;;;;;;8.98;3.78;;;;;;;;;;10454594;28;20033;-64
2022/02/16 10:45:47;;;;;;;9.50;3.65;;;;;;;;;;10453208;28;20021;-64
2022/02/16 10:50:48;;;;;;;7.00;3.30;;;;;;;;;;10453148;28;20021;-64
2022/02/16 10:55:50;;;;;;;5.53;3.42;;;;;;;;;;10453044;28;20458;-64
2022/02/16 11:00:54;;;;;;;5.50;2.92;;;;;;;;;;10448935;28;20386;-64
2022/02/16 11:05:56;;;;;;;6.28;3.50;;;;;;;;;;10451944;28;20055;-64
2022/02/16 11:10:56;;;;;;;5.53;3.10;;;;;;;;;;10450422;28;20021;-64
2022/02/16 11:15:59;;;;;;;5.63;2.90;;;;;;;;;;10450942;28;20385;-64
2022/02/16 11:21:11;;;;;;;6.30;2.92;;;;;;;;;;10449582;28;20503;-64
2022/02/16 11:26:30;;;;;;;6.53;2.90;;;;;;;;;;10449905;28;20318;-64
2022/02/16 11:31:37;;;;;;;3.58;2.88;;;;;;;;;;10453177;28;20024;-64
2022/02/16 11:36:52;;;;;;;5.15;3.20;;;;;;;;;;10469205;28;20048;-63
2022/02/16 11:41:55;;;;;;;5.03;2.45;;;;;;;;;;10536279;28;20039;-63
2022/02/16 11:46:59;;;;;;;3.53;2.63;;;;;;;;;;10535417;28;20028;-63
2022/02/16 11:51:59;;;;;;;4.78;2.90;;;;;;;;;;10534990;28;20425;-63
2022/02/16 11:57:38;;;;;;;4.78;2.65;;;;;;;;;;10532578;28;20035;-64
2022/02/16 12:02:58;;;;;;;3.55;2.75;;;;;;;;;;10534910;28;20028;-64
2022/02/16 12:08:14;;;;;;;3.88;2.47;;;;;;;;;;10534877;28;20035;-64
2022/02/16 12:13:15;;;;;;;4.43;2.45;;;;;;;;;;10535244;28;20482;-65
2022/02/16 12:18:15;;;;;;;3.33;2.60;;;;;;;;;;10534225;28;20054;-64
2022/02/16 12:23:16;;;;;;;3.73;2.43;;;;;;;;;;10531509;28;20051;-65
2022/02/16 12:28:16;;;;;;;3.15;2.60;;;;;;;;;;10529759;28;20027;-64
2022/02/16 12:33:19;;;;;;;2.97;2.40;;;;;;;;;;10533287;28;20517;-64
2022/02/16 12:38:27;;;;;;;4.38;2.70;;;;;;;;;;10533619;28;20060;-64
2022/02/16 12:43:27;;;;;;;4.47;2.50;;;;;;;;;;10533630;28;20463;-64
2022/02/16 12:48:28;;;;;;;4.17;2.60;;;;;;;;;;10532982;28;20024;-64
2022/02/16 12:53:38;;;;;;;4.78;2.30;;;;;;;;;;10533672;28;20073;-64
2022/02/16 12:58:41;;;;;;;3.30;2.33;;;;;;;;;;10532899;28;20079;-64
2022/02/16 13:03:41;;;;;;;7.05;2.72;;;;;;;;;;10533059;28;20556;-64
2022/02/16 13:08:43;;;;;;;3.30;2.50;;;;;;;;;;10533165;28;20081;-63
2022/02/16 13:13:44;;;;;;;6.40;2.40;;;;;;;;;;10533544;28;20051;-63
2022/02/16 13:18:49;;;;;;;3.83;2.23;;;;;;;;;;10532374;28;20028;-63
2022/02/16 13:23:52;;;;;;;4.22;2.63;;;;;;;;;;10532628;28;20028;-65
2022/02/16 13:29:03;;;;;;;4.90;2.20;;;;;;;;;;10527816;28;20020;-63
2022/02/16 13:34:10;;;;;;;2.42;2.22;;;;;;;;;;10527332;28;20027;-64
2022/02/16 13:39:17;;;;;;;3.35;2.53;;;;;;;;;;10528558;28;20054;-64
2022/02/16 13:44:28;;;;;;;8.00;2.72;;;;;;;;;;10531090;28;20055;-64
2022/02/16 13:49:29;;;;;;;4.65;2.47;;;;;;;;;;10530253;28;20032;-64
2022/02/16 13:54:32;;;;;;;6.68;2.67;;;;;;;;;;10528559;28;20111;-64
2022/02/16 13:59:33;;;;;;;3.03;2.47;;;;;;;;;;10531747;28;20490;-63
2022/02/16 14:04:34;;;;;;;4.60;2.58;;;;;;;;;;10537801;28;20024;-63
2022/02/16 14:09:35;;;;;;;7.78;2.42;;;;;;;;;;10537320;28;20032;-63
2022/02/16 14:14:36;;;;;;;5.13;2.60;;;;;;;;;;10537155;28;20024;-63
2022/02/16 14:19:36;;;;;;;3.50;2.13;;;;;;;;;;10535492;28;20491;-63
2022/02/16 14:24:38;;;;;;;4.30;2.15;;;;;;;;;;10537239;28;20081;-63
2022/02/16 14:29:41;;;;;;;8.57;2.65;;;;;;;;;;10538752;28;20036;-63
2022/02/16 14:34:41;;;;;;;5.70;2.33;;;;;;;;;;10532946;28;20126;-63
2022/02/16 14:39:44;;;;;;;4.57;2.60;;;;;;;;;;10535948;28;20036;-63
2022/02/16 14:44:45;;;;;;;3.55;2.60;;;;;;;;;;10533460;28;20036;-63
2022/02/16 14:49:46;;;;;;;2.83;2.33;;;;;;;;;;10535865;28;20517;-63
2022/02/16 14:54:46;;;;;;;2.92;2.20;;;;;;;;;;10534179;28;20035;-63
2022/02/16 14:59:47;;;;;;;5.17;2.10;;;;;;;;;;10534835;28;20042;-64
2022/02/16 15:04:47;;;;;;;2.55;2.17;;;;;;;;;;10536044;28;20436;-65
2022/02/16 15:09:48;;;;;;;5.43;2.03;;;;;;;;;;10536200;28;20020;-65
2022/02/16 15:14:48;;;;;;;4.28;2.40;;;;;;;;;;10536635;28;20020;-65
2022/02/16 15:19:48;;;;;;;4.53;2.40;;;;;;;;;;10536976;28;20546;-65
2022/02/16 15:24:49;;;;;;;3.33;2.07;;;;;;;;;;10535156;28;20437;-64
2022/02/16 15:29:49;;;;;;;3.50;2.17;;;;;;;;;;10535315;28;20118;-64
2022/02/16 15:34:50;;;;;;;4.07;2.28;;;;;;;;;;10534997;28;20437;-63
2022/02/16 15:39:50;;;;;;;3.13;2.25;;;;;;;;;;10535438;28;20100;-63
2022/02/16 15:44:50;;;;;;;2.72;2.30;;;;;;;;;;10532334;28;20027;-64
2022/02/16 15:49:51;;;;;;;2.47;2.00;;;;;;;;;;10534070;28;20031;-63
2022/02/16 15:54:52;;;;;;;2.58;1.85;;;;;;;;;;10530757;28;20471;-64
2022/02/16 15:59:53;;;;;;;2.03;1.80;;;;;;;;;;10534902;28;20111;-63
2022/02/16 16:04:54;;;;;;;3.45;2.03;;;;;;;;;;10535118;28;20027;-63
2022/02/16 16:09:54;;;;;;;2.20;2.00;;;;;;;;;;10534895;28;20459;-64
2022/02/16 16:14:55;;;;;;;2.70;1.70;;;;;;;;;;10534274;28;20107;-63
2022/02/16 16:19:55;;;;;;;2.97;2.20;;;;;;;;;;10533682;28;20479;-63
2022/02/16 16:24:55;;;;;;;4.80;2.37;;;;;;;;;;10532051;28;20032;-64
2022/02/16 16:29:59;;;;;;;4.23;2.07;;;;;;;;;;10532945;28;20028;-64
2022/02/16 16:34:59;;;;;;;4.78;2.50;;;;;;;;;;10533070;28;20059;-64
2022/02/16 16:40:00;;;;;;;3.10;2.00;;;;;;;;;;10532289;28;20123;-65
2022/02/16 16:45:02;;;;;;;6.95;2.03;;;;;;;;;;10532647;28;20115;-64
2022/02/16 16:50:02;;;;;;;4.38;2.15;;;;;;;;;;10532491;28;20024;-65
2022/02/16 16:55:04;;;;;;;3.30;2.10;;;;;;;;;;10529061;28;20124;-65
2022/02/16 17:00:06;;;;;;;2.30;1.80;;;;;;;;;;10532715;28;20035;-64
2022/02/16 17:05:07;;;;;;;3.00;2.33;;;;;;;;;;10530598;28;20027;-64
2022/02/16 17:10:08;;;;;;;5.18;2.45;;;;;;;;;;10533132;28;20498;-64
2022/02/16 17:15:09;;;;;;;3.85;2.22;;;;;;;;;;10532267;28;20028;-64
2022/02/16 17:20:10;;;;;;;2.65;1.90;;;;;;;;;;10533086;28;20039;-64
2022/02/16 17:25:11;;;;;;;8.27;2.13;;;;;;;;;;10532828;28;20439;-64
2022/02/16 17:30:11;;;;;;;3.85;2.25;;;;;;;;;;10531415;28;20048;-64
2022/02/16 17:35:12;;;;;;;2.50;2.20;;;;;;;;;;10537381;28;20490;-64
2022/02/16 17:40:12;;;;;;;6.87;1.90;;;;;;;;;;10538310;28;20182;-64
2022/02/16 17:45:12;;;;;;;3.97;2.00;;;;;;;;;;10539641;28;20455;-64
2022/02/16 17:50:13;;;;;;;3.22;2.45;;;;;;;;;;10539402;28;20449;-64
2022/02/16 17:55:14;;;;;;;4.10;2.30;;;;;;;;;;10540131;28;20073;-64
2022/02/16 18:00:21;;;;;;;2.60;2.03;;;;;;;;;;10539219;28;20039;-64
2022/02/16 18:05:21;;;;;;;4.80;2.17;;;;;;;;;;10536611;28;20073;-64
2022/02/16 18:10:22;;;;;;;2.90;2.17;;;;;;;;;;10537180;28;20020;-64
2022/02/16 18:15:25;;;;;;;3.53;2.38;;;;;;;;;;10533027;28;20077;-64
2022/02/16 18:20:25;;;;;;;3.97;2.10;;;;;;;;;;10536661;28;20050;-64
2022/02/16 18:25:26;;;;;;;7.27;2.67;;;;;;;;;;10538373;28;20658;-62
2022/02/16 18:30:26;;;;;;;13.25;2.60;;;;;;;;;;10538962;28;20473;-64
2022/02/16 18:35:27;;;;;;;5.43;2.67;;;;;;;;;;10538282;28;20031;-63
2022/02/16 18:40:28;;;;;;;5.93;2.60;;;;;;;;;;10537625;28;20154;-64
2022/02/16 18:45:29;;;;;;;11.10;2.28;;;;;;;;;;10537171;28;20035;-63
2022/02/16 18:50:29;;;;;;;7.77;3.00;;;;;;;;;;10537963;28;20036;-64
2022/02/16 18:55:30;;;;;;;7.50;2.33;;;;;;;;;;10537546;28;20448;-63
2022/02/16 19:00:30;;;;;;;11.38;3.00;;;;;;;;;;10538037;28;20024;-63
2022/02/16 19:05:31;;;;;;;7.60;2.53;;;;;;;;;;10537297;28;20036;-63
2022/02/16 19:10:34;;;;;;;6.00;2.83;;;;;;;;;;10537476;28;20027;-64
2022/02/16 19:15:34;;;;;;;6.03;2.70;;;;;;;;;;10532567;28;20020;-62
2022/02/16 19:20:35;;;;;;;5.45;2.75;;;;;;;;;;10535673;28;20028;-63
2022/02/16 19:25:36;;;;;;;5.85;3.25;;;;;;;;;;10532405;28;20055;-64
2022/02/16 19:30:36;;;;;;;6.82;2.97;;;;;;;;;;10535434;28;20057;-62
2022/02/16 19:35:36;;;;;;;6.37;3.07;;;;;;;;;;10535573;28;20028;-62
2022/02/16 19:40:37;;;;;;;12.38;3.15;;;;;;;;;;10535767;28;20020;-63
2022/02/16 19:45:37;;;;;;;6.30;2.63;;;;;;;;;;10534443;28;20073;-63
2022/02/16 19:50:38;;;;;;;8.85;2.50;;;;;;;;;;10535194;28;20441;-64
2022/02/16 19:55:38;;;;;;;6.97;2.80;;;;;;;;;;10534545;28;20027;-64
2022/02/16 20:00:42;;;;;;;7.25;3.08;;;;;;;;;;10534344;28;20030;-64
2022/02/16 20:05:42;;;;;;;6.03;3.03;;;;;;;;;;10535362;28;20061;-63
2022/02/16 20:10:43;;;;;;;6.47;3.17;;;;;;;;;;10535692;28;20110;-63
2022/02/16 20:15:45;;;;;;;5.60;3.22;;;;;;;;;;10534286;28;20069;-63
2022/02/16 20:20:46;;;;;;;9.48;3.30;;;;;;;;;;10534074;28;20057;-63
2022/02/16 20:25:48;;;;;;;4.55;3.20;;;;;;;;;;10527079;28;20047;-63
2022/02/16 20:30:49;;;;;;;8.05;3.30;;;;;;;;;;10532202;28;20024;-63
2022/02/16 20:35:50;;;;;;;9.63;3.33;;;;;;;;;;10533279;28;20024;-64
2022/02/16 20:40:51;;;;;;;6.95;3.08;;;;;;;;;;10533761;28;20036;-63
2022/02/16 20:45:52;;;;;;;7.80;3.10;;;;;;;;;;10533078;28;20258;-63
2022/02/16 20:50:53;;;;;;;7.97;3.50;;;;;;;;;;10532757;28;20028;-64
2022/02/16 20:55:54;;;;;;;7.13;3.63;;;;;;;;;;10533382;28;20062;-63
2022/02/16 21:00:54;;;;;;;5.47;3.53;;;;;;;;;;10532937;28;20048;-63
2022/02/16 21:05:57;;;;;;;5.97;3.70;;;;;;;;;;10531678;28;20032;-63
2022/02/16 21:10:57;;;;;;;5.75;3.72;;;;;;;;;;10532946;28;20967;-63
2022/02/16 21:15:58;;;;;;;5.53;3.38;;;;;;;;;;10532986;28;20020;-63
2022/02/16 21:20:59;;;;;;;5.00;3.70;;;;;;;;;;10532895;28;20368;-62
2022/02/16 21:26:01;;;;;;;7.03;4.00;;;;;;;;;;10529277;28;20028;-63
2022/02/16 21:31:02;;;;;;;9.10;4.28;;;;;;;;;;10532660;28;20122;-63
2022/02/16 21:36:02;;;;;;;5.40;4.07;;;;;;;;;;10528518;28;20140;-63
2022/02/16 21:41:03;;;;;;;12.02;3.97;;;;;;;;;;10532623;28;20035;-63
2022/02/16 21:46:03;;;;;;;5.97;4.15;;;;;;;;;;10531821;28;20044;-63
2022/02/16 21:51:04;;;;;;;6.65;4.38;;;;;;;;;;10532144;28;20045;-64
2022/02/16 21:56:04;;;;;;;6.47;4.47;;;;;;;;;;10532249;28;20024;-62
2022/02/16 22:01:05;;;;;;;7.28;4.55;;;;;;;;;;10531828;28;20043;-63
2022/02/16 22:06:05;;;;;;;10.82;4.25;;;;;;;;;;10531319;28;20028;-63
2022/02/16 22:11:05;;;;;;;5.33;4.23;;;;;;;;;;10531686;28;20023;-64
2022/02/16 22:16:06;;;;;;;7.37;5.03;;;;;;;;;;10531266;28;20465;-63
2022/02/16 22:21:06;;;;;;;7.77;4.67;;;;;;;;;;10533493;28;20017;-63
2022/02/16 22:26:06;;;;;;;7.20;4.15;;;;;;;;;;10536787;28;20103;-65
2022/02/16 22:31:07;;;;;;;6.63;4.80;;;;;;;;;;10536761;28;20048;-64
2022/02/16 22:36:08;;;;;;;8.05;4.15;;;;;;;;;;10534220;28;20982;-64
2022/02/16 22:41:08;;;;;;;8.75;4.38;;;;;;;;;;10537279;28;20020;-63
2022/02/16 22:46:09;;;;;;;8.50;4.10;;;;;;;;;;10534888;28;20024;-64
2022/02/16 22:51:09;;;;;;;8.07;4.27;;;;;;;;;;10537783;28;20472;-63
2022/02/16 22:56:11;;;;;;;8.70;4.75;;;;;;;;;;10537328;28;20815;-63
2022/02/16 23:01:11;;;;;;;8.98;4.85;;;;;;;;;;10535987;28;20414;-62
2022/02/16 23:11:31;;;;;;;;;;;;;;;;;;10537581;28;20060;-62
2022/02/16 23:16:33;;;;;;;7.05;4.20;;;;;;;;;;10536687;28;19955;-62
2022/02/16 23:21:34;;;;;;;6.50;4.65;;;;;;;;;;10535858;28;20232;-62
2022/02/16 23:26:34;;;;;;;6.85;4.18;;;;;;;;;;10534697;28;20560;-62
2022/02/16 23:31:35;;;;;;;6.07;4.65;;;;;;;;;;10531781;28;20028;-62
2022/02/16 23:36:35;;;;;;;5.03;3.93;;;;;;;;;;10531060;28;20512;-61
2022/02/16 23:41:35;;;;;;;6.60;3.97;;;;;;;;;;10534410;28;20028;-62
2022/02/16 23:46:36;;;;;;;6.27;4.43;;;;;;;;;;10530708;28;20469;-62
2022/02/16 23:51:36;;;;;;;7.72;4.50;;;;;;;;;;10533539;28;20035;-62
2022/02/16 23:56:37;;;;;;;6.13;4.13;;;;;;;;;;10529289;28;20024;-62
